• Join FlightAware (Why Join?)
  • Login
  • US Flag 
06:16PM EDT


 

Airport Tracker/Info


-or-


 

Live Flight TrackerFlight Track Log ✈ DAL1118 ✈ 27-Apr-2013 ✈ KATL - KFAY

Flight Track Log - Related Links

Times and Time Zones

All times are in EDT time to prevent confusion due to time zone crossing. See the DAL1118 flight status page for this flight to view local times or setup timezone preferences in your user account.

Time Position Orientation Groundspeed Altitude Reporting Facility
EDT Latitude Longitude Course Direction KTS MPH feet Rate Location/Type
07:16PM 33.6333 -84.3833 81° East 167 192 2,500  Level Atlanta TRACON
07:17PM 33.6333 -84.3167 90° East 245 282 4,700 2,460 Climbing Atlanta TRACON
07:18PM 33.6333 -84.2333 90° East 282 325 7,200 2,220 Climbing Atlanta TRACON
07:19PM 33.7006 -83.9964 118° Southeast  Level FlightAware Approximate
07:20PM 33.6441 -83.8671 118° Southeast  Level FlightAware Approximate
07:20PM 33.6189 -84.0189 95° East 331 381 11,500  Level Atlanta Center
07:21PM 33.5861 -83.7389 121° Southeast  Level FlightAware Approximate
07:21PM 33.5917 -83.8742 103° East 372 428 13,400  Level Atlanta Center
07:22PM 33.5362 -83.6109 81° East  Level FlightAware Approximate
07:22PM 33.5642 -83.7322 103° East 414 476 16,000  Level Atlanta Center
07:23PM 33.5533 -83.5878 95° East 432 497 18,200 2,100 Climbing Atlanta Center
07:24PM 33.5714 -83.4331 82° East 442 509 20,200 1,860 Climbing Atlanta Center
07:25PM 33.5894 -83.2758 82° East 466 536 22,000 1,800 Climbing Atlanta Center
07:26PM 33.6092 -83.1133 82° East 480 552 23,900 1,980 Climbing Atlanta Center
07:27PM 33.6267 -82.9536 82° East 485 558 26,000 1,680 Climbing Atlanta Center
07:29PM 33.6567 -82.6556 83° East 477 549 29,000 960 Climbing Jacksonville Center
07:30PM 33.6750 -82.4933 82° East 482 555 29,000  Level Jacksonville Center
07:31PM 33.6911 -82.3158 84° East 483 556 29,000  Level Jacksonville Center
07:32PM 33.7111 -82.1586 81° East 483 556 29,000  Level Jacksonville Center
07:33PM 33.7436 -82.0033 76° East 477 549 29,000  Level Jacksonville Center
07:34PM 33.7778 -81.8506 75° East 472 543 29,000  Level Jacksonville Center
07:35PM 33.8100 -81.7003 75° East 472 543 29,000 -60 Level Jacksonville Center
07:36PM 33.8544 -81.5522 70° East 472 543 28,900 -1,080 Descending Jacksonville Center
07:37PM 33.9114 -81.4286 61° Northeast 472 543 26,900 -1,800 Descending Jacksonville Center
07:38PM 33.9744 -81.2872 62° Northeast 467 537 25,400 -1,380 Descending Jacksonville Center
07:39PM 34.0350 -81.1458 63° Northeast 467 537 24,200 -720 Descending Jacksonville Center
07:40PM 34.1017 -80.9917 62° Northeast 467 537 24,000 -780 Descending Jacksonville Center
07:41PM 34.1581 -80.8575 63° Northeast 461 531 22,700 -1,380 Descending Jacksonville Center
07:42PM 34.2142 -80.7181 64° Northeast 455 524 21,300 -900 Descending Jacksonville Center
07:43PM 34.2742 -80.5833 62° Northeast 455 524 21,000 -180 Descending Jacksonville Center
07:44PM 34.3322 -80.4511 62° Northeast 450 518 21,000  Level Jacksonville Center
07:45PM 34.3881 -80.3186 63° Northeast 450 518 21,000  Level Jacksonville Center
07:46PM 34.4478 -80.1808 62° Northeast 455 524 21,000 -720 Level Jacksonville Center
07:48PM 34.5614 -79.9044 63° Northeast 442 509 18,900 -1,500 Descending Washington Center
07:49PM 34.6183 -79.7736 62° Northeast 437 503 16,500 -2,520 Descending Washington Center
07:50PM 34.6681 -79.6600 62° Northeast 431 496 14,000 -2,580 Descending Washington Center
07:51PM 34.7206 -79.5261 64° Northeast 406 467 11,300 -1,740 Descending Washington Center
07:52PM 34.7633 -79.4272 62° Northeast 376 433 10,600 -900 Descending Washington Center
07:53PM 34.8042 -79.3253 64° Northeast 331 381 9,600 -1,380 Descending Washington Center
07:54PM 34.8381 -79.2383 65° Northeast 300 345 7,900 -2,040 Descending Washington Center
07:55PM 34.8694 -79.1664 62° Northeast 270 311 5,600 -2,220 Descending Washington Center
07:56PM 34.8989 -79.0942 64° Northeast 250 288 3,600 -1,440 Descending Washington Center
07:57PM 34.9258 -79.0219 66° East 222 255 2,800 -840 Descending Washington Center